Blankenberge, Belgium
Current Conditions -  °F | °C
As of 9:20 PM on Friday 21 Nov 2014 (Local Time) from EBOS Reporting Station
Haze Haze  
Wind Chill:   Ceiling: 1200
Heat Index:   Visibility: 2.8mi
Dew Point:   Wind: 6mph
Humidity: 93%   Direction: 110°ESE
Pressure: 30.03"   Gusts: NA
Location:  51.31°N, 3.13°E
Report Text: EBOS 212020Z 11005KT 4500 BR BKN012 06/05 Q1017 BECMG SCT012
Loading
Personal Weather Stations






























Interactive Weather Map New forecast layout! Learn more

10-Day Weather Forecast

Advertisements
Track Severe Weather on mobile